createdAt,value
2022-08-08T00:01:06.659Z,98518.34
2022-08-08T00:03:35.266Z,98528.50
2022-08-08T00:06:04.066Z,98527.94
2022-08-08T00:08:33.833Z,98526.28
2022-08-08T00:11:00.367Z,98525.72
2022-08-08T00:14:15.039Z,98526.25
2022-08-08T00:16:21.333Z,98528.34
2022-08-08T00:18:50.899Z,98532.34
2022-08-08T00:21:17.359Z,98530.97
2022-08-08T00:23:47.695Z,98529.34
2022-08-08T00:26:26.315Z,98531.47
2022-08-08T00:28:55.749Z,98531.16
2022-08-08T00:32:21.039Z,98528.72
2022-08-08T00:34:18.759Z,98537.00
2022-08-08T00:36:46.397Z,98535.63
2022-08-08T00:40:25.104Z,98528.91
2022-08-08T00:42:08.866Z,98533.44
2022-08-08T00:44:46.457Z,98535.56
2022-08-08T00:47:14.216Z,98530.19
2022-08-08T00:49:57.739Z,98540.38
2022-08-08T00:52:29.036Z,98529.09
2022-08-08T00:55:05.313Z,98531.22
2022-08-08T00:57:35.921Z,98540.28
2022-08-08T01:00:05.079Z,98538.69
2022-08-08T01:03:57.471Z,98539.75
2022-08-08T01:05:29.108Z,98534.63
2022-08-08T01:08:06.823Z,98538.63
2022-08-08T01:10:33.706Z,98535.94
2022-08-08T01:13:00.258Z,98537.22
2022-08-08T01:15:43.445Z,98533.75
2022-08-08T01:18:16.112Z,98529.69
2022-08-08T01:20:51.851Z,98539.84
2022-08-08T01:24:05.747Z,98534.72
2022-08-08T01:26:11.405Z,98542.78
2022-08-08T01:28:38.700Z,98537.41
2022-08-08T01:31:05.894Z,98542.22
2022-08-08T01:33:54.149Z,98538.97
2022-08-08T01:36:23.499Z,98537.34
2022-08-08T01:38:49.905Z,98531.41
2022-08-08T01:41:19.760Z,98540.53
2022-08-08T01:43:46.553Z,98536.22
2022-08-08T01:46:12.931Z,98542.88
2022-08-08T01:48:40.257Z,98539.88
2022-08-08T01:51:31.966Z,98538.25
2022-08-08T01:55:17.812Z,98538.50
2022-08-08T01:56:54.839Z,98545.97
2022-08-08T01:59:24.142Z,98535.50
2022-08-08T02:02:08.259Z,98535.75
2022-08-08T02:04:36.550Z,98545.06
2022-08-08T02:07:04.150Z,98542.63
2022-08-08T02:10:01.273Z,98538.09
2022-08-08T02:12:26.421Z,98543.94
2022-08-08T02:14:58.687Z,98540.69
2022-08-08T02:17:26.242Z,98544.38
2022-08-08T02:20:09.147Z,98541.16
2022-08-08T02:22:52.983Z,98544.88
2022-08-08T02:25:23.100Z,98545.38
2022-08-08T02:28:01.047Z,98542.13
2022-08-08T02:30:27.764Z,98542.38
2022-08-08T02:32:54.230Z,98532.72
2022-08-08T02:35:22.348Z,98531.91
2022-08-08T02:37:53.226Z,98530.28
2022-08-08T02:40:23.343Z,98531.34
2022-08-08T02:44:32.905Z,98537.75
2022-08-08T02:45:54.330Z,98536.94
2022-08-08T02:48:25.898Z,98543.59
2022-08-08T02:50:56.055Z,98545.69
2022-08-08T02:53:23.999Z,98540.59
2022-08-08T02:55:59.850Z,98538.16
2022-08-08T02:58:26.870Z,98541.91
2022-08-08T03:00:53.370Z,98538.66
2022-08-08T03:05:00.355Z,98546.69
2022-08-08T03:06:06.619Z,98551.22
2022-08-08T03:08:33.900Z,98558.44
2022-08-08T03:11:00.570Z,98557.63
2022-08-08T03:15:54.591Z,98557.06
2022-08-08T03:16:19.674Z,98559.19
2022-08-08T03:19:02.058Z,98560.47
2022-08-08T03:21:40.784Z,98551.88
2022-08-08T03:24:16.132Z,98552.34
2022-08-08T03:26:43.097Z,98549.13
2022-08-08T03:29:18.465Z,98545.88
2022-08-08T03:32:05.752Z,98558.69
2022-08-08T03:34:33.650Z,98559.72
2022-08-08T03:37:00.052Z,98563.69
2022-08-08T03:39:26.685Z,98562.88
2022-08-08T03:42:12.859Z,98558.00
2022-08-08T03:44:40.264Z,98564.41
2022-08-08T03:47:20.023Z,98567.31
2022-08-08T03:50:01.197Z,98565.97
2022-08-08T03:52:28.957Z,98569.66
2022-08-08T03:55:01.801Z,98571.78
2022-08-08T03:58:34.250Z,98567.47
2022-08-08T04:00:21.861Z,98578.44
2022-08-08T04:02:55.176Z,98579.47
2022-08-08T04:05:28.123Z,98579.72
2022-08-08T04:07:55.419Z,98585.31
2022-08-08T04:10:24.953Z,98584.50
2022-08-08T04:12:51.413Z,98587.41
2022-08-08T04:15:18.337Z,98579.63
2022-08-08T04:17:58.471Z,98583.94
2022-08-08T04:20:28.290Z,98587.16
2022-08-08T04:22:56.784Z,98589.63
2022-08-08T04:25:29.820Z,98592.84
2022-08-08T04:28:35.462Z,98592.41
2022-08-08T04:30:45.752Z,98601.09
2022-08-08T04:33:15.494Z,98607.91
2022-08-08T04:35:43.882Z,98612.88
2022-08-08T04:38:21.202Z,98614.94
2022-08-08T04:40:53.328Z,98618.00
2022-08-08T04:43:31.328Z,98619.25
2022-08-08T04:46:09.833Z,98616.75
2022-08-08T04:48:36.372Z,98615.31
2022-08-08T04:51:02.790Z,98625.16
2022-08-08T04:54:36.541Z,98624.03
2022-08-08T04:56:15.583Z,98624.81
2022-08-08T04:58:41.986Z,98630.13
2022-08-08T05:01:10.517Z,98638.41
2022-08-08T05:04:09.599Z,98632.22
2022-08-08T05:06:25.544Z,98636.97
2022-08-08T05:08:52.370Z,98627.47
2022-08-08T05:11:24.218Z,98637.03
2022-08-08T05:13:58.462Z,98640.44
2022-08-08T05:16:53.369Z,98646.81
2022-08-08T05:20:05.147Z,98647.75
2022-08-08T05:22:00.897Z,98649.53
2022-08-08T05:24:27.347Z,98649.66
2022-08-08T05:26:53.653Z,98656.22
2022-08-08T05:29:19.967Z,98648.31
2022-08-08T05:32:04.888Z,98652.47
2022-08-08T05:34:32.103Z,98645.28
2022-08-08T05:36:58.645Z,98657.75
2022-08-08T05:39:28.656Z,98655.41
2022-08-08T05:42:01.265Z,98657.38
2022-08-08T05:44:31.151Z,98655.81
2022-08-08T05:47:02.630Z,98651.56
2022-08-08T05:49:31.157Z,98654.56
2022-08-08T05:51:57.545Z,98654.66
2022-08-08T05:54:50.753Z,98662.22
2022-08-08T05:57:11.416Z,98664.94
2022-08-08T05:59:59.216Z,98668.47
2022-08-08T06:02:27.930Z,98666.59
2022-08-08T06:04:56.785Z,98666.88
2022-08-08T06:07:23.240Z,98669.00
2022-08-08T06:09:59.675Z,98656.84
2022-08-08T06:12:29.712Z,98662.22
2022-08-08T06:14:57.740Z,98663.28
2022-08-08T06:17:50.365Z,98659.19
2022-08-08T06:20:11.604Z,98665.34
2022-08-08T06:22:38.697Z,98665.59
2022-08-08T06:25:08.728Z,98669.56
2022-08-08T06:27:36.937Z,98658.97
2022-08-08T06:30:05.186Z,98670.00
2022-08-08T06:32:33.698Z,98665.84
2022-08-08T06:35:12.025Z,98662.50
2022-08-08T06:37:50.837Z,98663.47
2022-08-08T06:40:17.522Z,98664.47
2022-08-08T06:42:43.909Z,98662.22
2022-08-08T06:45:10.406Z,98667.75
2022-08-08T06:47:52.203Z,98667.09
2022-08-08T06:50:32.137Z,98665.06
2022-08-08T06:52:59.717Z,98660.59
2022-08-08T06:55:26.304Z,98660.19
2022-08-08T06:57:56.493Z,98664.63
2022-08-08T07:00:29.850Z,98659.06
2022-08-08T07:02:57.044Z,98661.06
2022-08-08T07:05:24.955Z,98659.56
2022-08-08T07:07:56.707Z,98666.16
2022-08-08T07:10:23.293Z,98669.25
2022-08-08T07:12:49.796Z,98664.19
2022-08-08T07:15:32.359Z,98670.00
2022-08-08T07:18:35.113Z,98669.25
2022-08-08T07:20:50.792Z,98672.31
2022-08-08T07:23:23.553Z,98669.13
2022-08-08T07:25:54.618Z,98673.50
2022-08-08T07:28:24.642Z,98676.25
2022-08-08T07:30:58.128Z,98680.91
2022-08-08T07:33:25.187Z,98677.69
2022-08-08T07:35:54.516Z,98678.31
2022-08-08T07:38:24.773Z,98675.88
2022-08-08T07:40:52.076Z,98675.44
2022-08-08T07:43:35.261Z,98686.81
2022-08-08T07:46:23.791Z,98682.94
2022-08-08T07:48:51.169Z,98677.69
2022-08-08T07:51:23.124Z,98694.50
2022-08-08T07:54:01.333Z,98693.00
2022-08-08T07:56:37.021Z,98707.56
2022-08-08T07:59:05.918Z,98713.66
2022-08-08T08:02:32.844Z,98726.28
2022-08-08T08:04:21.647Z,98728.03
2022-08-08T08:06:51.159Z,98730.88
2022-08-08T08:09:17.454Z,98733.97
2022-08-08T08:11:51.741Z,98737.09
2022-08-08T08:14:19.331Z,98726.06
2022-08-08T08:16:48.505Z,98746.19
2022-08-08T08:19:16.628Z,98746.72
2022-08-08T08:21:57.369Z,98748.56
2022-08-08T08:24:30.729Z,98750.81
2022-08-08T08:26:59.009Z,98768.19
2022-08-08T08:29:27.707Z,98754.84
2022-08-08T08:31:57.631Z,98733.47
2022-08-08T08:34:24.797Z,98754.88
2022-08-08T08:36:59.248Z,98757.59
2022-08-08T08:39:59.403Z,98773.31
2022-08-08T08:42:11.977Z,98765.91
2022-08-08T08:44:39.745Z,98754.97
2022-08-08T08:47:09.054Z,98739.19
2022-08-08T08:49:36.846Z,98724.44
2022-08-08T08:52:09.605Z,98713.94
2022-08-08T08:54:35.949Z,98708.94
2022-08-08T08:57:15.557Z,98689.97
2022-08-08T09:00:00.013Z,98665.22
2022-08-08T09:02:42.083Z,98635.91
2022-08-08T09:05:08.458Z,98629.63
2022-08-08T09:08:12.616Z,98629.69
2022-08-08T09:10:41.549Z,98629.91
2022-08-08T09:13:14.734Z,98623.78
2022-08-08T09:15:43.195Z,98621.91
2022-08-08T09:18:09.686Z,98629.50
2022-08-08T09:21:58.689Z,98619.13
2022-08-08T09:23:25.232Z,98623.38
2022-08-08T09:25:58.402Z,98631.34
2022-08-08T09:28:37.374Z,98628.44
2022-08-08T09:31:12.759Z,98627.16
2022-08-08T09:34:16.189Z,98640.25
2022-08-08T09:36:25.803Z,98618.78
2022-08-08T09:38:54.213Z,98621.00
2022-08-08T09:41:20.654Z,98619.69
2022-08-08T09:44:05.063Z,98627.34
2022-08-08T09:46:33.973Z,98624.16
2022-08-08T09:49:04.342Z,98623.63
2022-08-08T09:52:06.298Z,98623.13
2022-08-08T09:54:37.721Z,98622.13
2022-08-08T09:57:06.213Z,98621.94
2022-08-08T10:00:01.666Z,98629.06
2022-08-08T10:02:29.848Z,98628.38
2022-08-08T10:04:56.506Z,98625.16
2022-08-08T10:07:23.767Z,98627.66
2022-08-08T10:09:59.223Z,98623.13
2022-08-08T10:12:37.756Z,98613.47
2022-08-08T10:15:18.342Z,98617.91
2022-08-08T10:18:06.025Z,98618.50
2022-08-08T10:20:41.413Z,98624.56
2022-08-08T10:23:41.119Z,98612.16
2022-08-08T10:26:04.407Z,98617.69
2022-08-08T10:28:54.164Z,98612.66
2022-08-08T10:31:21.206Z,98612.47
2022-08-08T10:34:19.517Z,98614.66
2022-08-08T10:36:49.259Z,98609.22
2022-08-08T10:39:17.178Z,98614.47
2022-08-08T10:41:58.926Z,98611.50
2022-08-08T10:44:30.296Z,98601.75
2022-08-08T10:46:57.203Z,98604.75
2022-08-08T10:49:26.845Z,98603.97
2022-08-08T10:52:13.357Z,98601.84
2022-08-08T10:54:41.489Z,98601.94
2022-08-08T10:57:08.823Z,98603.34
2022-08-08T10:59:40.049Z,98601.50
2022-08-08T11:02:07.230Z,98595.38
2022-08-08T11:04:39.022Z,98594.06
2022-08-08T11:07:05.889Z,98584.91
2022-08-08T11:09:34.875Z,98595.84
2022-08-08T11:12:12.323Z,98588.31
2022-08-08T11:14:40.159Z,98587.81
2022-08-08T11:17:14.906Z,98594.03
2022-08-08T11:19:43.228Z,98598.66
2022-08-08T11:22:13.045Z,98593.22
2022-08-08T11:24:39.377Z,98598.66
2022-08-08T11:27:19.469Z,98591.63
2022-08-08T11:30:04.387Z,98589.78
2022-08-08T11:32:33.108Z,98596.13
2022-08-08T11:35:27.538Z,98592.91
2022-08-08T11:38:35.057Z,98593.41
2022-08-08T11:40:38.358Z,98589.06
2022-08-08T11:43:05.654Z,98598.84
2022-08-08T11:45:43.663Z,98598.03
2022-08-08T11:48:20.619Z,98598.84
2022-08-08T11:50:47.804Z,98598.84
2022-08-08T11:53:19.516Z,98608.06
2022-08-08T11:55:50.996Z,98601.84
2022-08-08T11:58:17.510Z,98608.06
2022-08-08T12:00:49.350Z,98608.66
2022-08-08T12:03:16.054Z,98607.59
2022-08-08T12:05:43.620Z,98603.59
2022-08-08T12:08:14.215Z,98603.09
2022-08-08T12:10:40.713Z,98595.75
2022-08-08T12:13:14.395Z,98600.06
2022-08-08T12:15:46.803Z,98597.34
2022-08-08T12:18:14.255Z,98600.06
2022-08-08T12:20:42.553Z,98603.59
2022-08-08T12:23:25.364Z,98606.81
2022-08-08T12:25:56.566Z,98614.16
2022-08-08T12:28:23.367Z,98612.53
2022-08-08T12:30:50.790Z,98598.97
2022-08-08T12:33:17.666Z,98604.38
2022-08-08T12:35:52.891Z,98607.09
2022-08-08T12:38:19.751Z,98606.00
2022-08-08T12:41:00.068Z,98608.22
2022-08-08T12:43:46.485Z,98600.38
2022-08-08T12:46:25.416Z,98598.81
2022-08-08T12:49:20.734Z,98578.69
2022-08-08T12:51:53.787Z,98597.09
2022-08-08T12:54:26.084Z,98592.75
2022-08-08T12:56:54.100Z,98591.16
2022-08-08T12:59:36.553Z,98591.16
2022-08-08T13:02:08.173Z,98589.56
2022-08-08T13:04:36.051Z,98581.41
2022-08-08T13:07:04.095Z,98593.06
2022-08-08T13:09:33.225Z,98599.28
2022-08-08T13:12:27.051Z,98586.53
2022-08-08T13:14:53.384Z,98586.84
2022-08-08T13:17:54.046Z,98593.88
2022-08-08T13:20:08.772Z,98601.19
2022-08-08T13:22:35.268Z,98590.63
2022-08-08T13:25:01.672Z,98584.41
2022-08-08T13:27:35.323Z,98591.75
2022-08-08T13:30:02.277Z,98587.41
2022-08-08T13:45:58.270Z,98592.84
2022-08-08T13:48:27.032Z,98592.84
2022-08-08T13:51:24.557Z,98587.41
2022-08-08T13:53:53.148Z,98579.88
2022-08-08T13:56:26.534Z,98571.22
2022-08-08T13:58:57.481Z,98568.81
2022-08-08T14:01:32.722Z,98563.97
2022-08-08T14:04:13.590Z,98560.22
2022-08-08T14:06:45.608Z,98554.28
2022-08-08T14:09:24.755Z,98551.88
2022-08-08T14:11:57.056Z,98562.72
2022-08-08T14:14:26.123Z,98552.69
2022-08-08T14:16:53.534Z,98561.63
2022-08-08T14:19:54.303Z,98560.00
2022-08-08T14:22:06.981Z,98562.22
2022-08-08T14:24:35.846Z,98559.50
2022-08-08T14:27:07.380Z,98556.78
2022-08-08T14:29:39.523Z,98560.59
2022-08-08T14:32:12.473Z,98559.50
2022-08-08T14:34:43.189Z,98557.59
2022-08-08T14:37:10.016Z,98560.59
2022-08-08T14:39:48.515Z,98553.56
2022-08-08T14:42:17.091Z,98556.25
2022-08-08T14:44:43.973Z,98557.38
2022-08-08T14:47:17.243Z,98561.22
2022-08-08T14:50:06.171Z,98556.34
2022-08-08T14:52:35.866Z,98554.50
2022-08-08T14:55:02.418Z,98545.53
2022-08-08T14:58:03.049Z,98550.47
2022-08-08T15:00:15.764Z,98542.91
2022-08-08T15:02:58.565Z,98554.06
2022-08-08T15:08:22.507Z,98553.25
2022-08-08T15:11:00.963Z,98559.78
2022-08-08T15:13:40.347Z,98548.13
2022-08-08T15:16:15.135Z,98544.59
2022-08-08T15:18:51.312Z,98547.59
2022-08-08T15:21:18.589Z,98546.81
2022-08-08T15:23:51.313Z,98546.81
2022-08-08T15:26:25.759Z,98549.78
2022-08-08T15:28:55.374Z,98544.66
2022-08-08T15:31:55.998Z,98549.56
2022-08-08T15:34:29.431Z,98541.44
2022-08-08T15:36:57.889Z,98558.81
2022-08-08T15:39:24.350Z,98549.66
2022-08-08T15:41:52.160Z,98554.28
2022-08-08T15:44:18.620Z,98552.97
2022-08-08T15:46:50.564Z,98555.66
2022-08-08T15:49:17.614Z,98544.31
2022-08-08T15:51:47.423Z,98545.41
2022-08-08T15:54:38.138Z,98542.72
2022-08-08T15:57:09.348Z,98537.84
2022-08-08T16:00:18.214Z,98543.56
2022-08-08T16:02:30.989Z,98548.19
2022-08-08T16:04:58.816Z,98544.69
2022-08-08T16:07:25.363Z,98545.25
2022-08-08T16:13:09.377Z,98545.56
2022-08-08T16:13:11.833Z,98542.84
2022-08-08T16:15:57.970Z,98548.28
2022-08-08T16:18:29.548Z,98546.66
2022-08-08T16:21:00.523Z,98543.94
2022-08-08T16:23:32.232Z,98553.19
2022-08-08T16:26:03.498Z,98548.84
2022-08-08T16:28:35.989Z,98541.81
2022-08-08T16:31:06.394Z,98548.31
2022-08-08T16:33:39.451Z,98549.41
2022-08-08T16:36:09.586Z,98549.41
2022-08-08T16:38:44.821Z,98554.31
2022-08-08T16:41:18.410Z,98560.84
2022-08-08T16:43:51.038Z,98563.84
2022-08-08T16:46:37.591Z,98561.16
2022-08-08T16:49:08.851Z,98564.13
2022-08-08T16:55:06.934Z,98560.91
2022-08-08T16:55:23.877Z,98563.63
2022-08-08T16:57:22.726Z,98567.41
2022-08-08T16:59:57.958Z,98570.72
2022-08-08T17:02:38.487Z,98569.09
2022-08-08T17:05:13.027Z,98574.81
2022-08-08T17:07:40.886Z,98573.16
2022-08-08T17:10:09.867Z,98568.03
2022-08-08T17:12:37.321Z,98570.22
2022-08-08T17:15:20.468Z,98574.00
2022-08-08T17:18:02.507Z,98573.22
2022-08-08T17:20:33.401Z,98576.53
2022-08-08T17:23:18.397Z,98581.13
2022-08-08T17:25:57.756Z,98582.50
2022-08-08T17:28:34.915Z,98571.16
2022-08-08T17:31:02.272Z,98581.19
2022-08-08T17:34:52.896Z,98577.97
2022-08-08T17:36:37.117Z,98583.66
2022-08-08T17:39:05.607Z,98588.56
2022-08-08T17:41:58.068Z,98592.34
2022-08-08T17:44:26.907Z,98597.28
2022-08-08T17:46:54.342Z,98600.25
2022-08-08T17:49:23.859Z,98601.63
2022-08-08T17:51:58.941Z,98607.34
2022-08-08T17:54:30.996Z,98607.91
2022-08-08T17:56:57.592Z,98613.59
2022-08-08T17:59:30.377Z,98611.47
2022-08-08T18:02:04.044Z,98619.06
2022-08-08T18:04:31.656Z,98623.19
2022-08-08T18:06:59.316Z,98622.38
2022-08-08T18:09:25.733Z,98629.16
2022-08-08T18:11:57.931Z,98627.00
2022-08-08T18:14:24.418Z,98630.00
2022-08-08T18:16:52.621Z,98634.09
2022-08-08T18:19:20.752Z,98633.59
2022-08-08T18:22:01.062Z,98640.34
2022-08-08T18:24:30.321Z,98637.94
2022-08-08T18:26:57.050Z,98642.81
2022-08-08T18:29:27.402Z,98646.91
2022-08-08T18:31:59.640Z,98653.66
2022-08-08T18:34:27.578Z,98646.91
2022-08-08T18:36:55.083Z,98651.00
2022-08-08T18:39:28.280Z,98649.66
2022-08-08T18:42:03.670Z,98658.63
2022-08-08T18:44:33.102Z,98662.19
2022-08-08T18:47:01.340Z,98657.91
2022-08-08T18:49:28.764Z,98653.59
2022-08-08T18:52:22.138Z,98654.47
2022-08-08T18:54:59.322Z,98650.44
2022-08-08T18:57:27.511Z,98657.00
2022-08-08T18:59:58.086Z,98666.75
2022-08-08T19:02:28.869Z,98670.31
2022-08-08T19:04:56.128Z,98663.00
2022-08-08T19:07:23.276Z,98670.84
2022-08-08T19:10:15.573Z,98670.34
2022-08-08T19:12:37.525Z,98666.06
2022-08-08T19:15:09.986Z,98680.13
2022-08-08T19:17:47.845Z,98680.66
2022-08-08T19:20:22.251Z,98681.53
2022-08-08T19:22:49.576Z,98686.13
2022-08-08T19:26:22.535Z,98691.56
2022-08-08T19:28:02.336Z,98691.59
2022-08-08T19:31:03.296Z,98694.31
2022-08-08T19:33:52.280Z,98696.75
2022-08-08T19:36:16.698Z,98693.78
2022-08-08T19:38:57.182Z,98702.69
2022-08-08T19:41:25.474Z,98710.81
2022-08-08T19:44:00.869Z,98717.03
2022-08-08T19:46:33.207Z,98717.03
2022-08-08T19:49:00.521Z,98725.13
2022-08-08T19:51:34.081Z,98721.66
2022-08-08T19:54:01.417Z,98735.94
2022-08-08T19:56:40.238Z,98728.66
2022-08-08T19:59:07.523Z,98731.09
2022-08-08T20:02:02.707Z,98731.91
2022-08-08T20:04:23.644Z,98735.41
2022-08-08T20:06:51.755Z,98740.00
2022-08-08T20:09:22.953Z,98742.44
2022-08-08T20:11:49.733Z,98746.75
2022-08-08T20:14:34.810Z,98745.69
2022-08-08T20:17:04.139Z,98747.56
2022-08-08T20:19:34.273Z,98749.97
2022-08-08T20:22:13.051Z,98748.31
2022-08-08T20:24:47.254Z,98750.50
2022-08-08T20:27:20.495Z,98754.53
2022-08-08T20:29:55.951Z,98752.09
2022-08-08T20:32:28.060Z,98749.94
2022-08-08T20:34:54.645Z,98750.47
2022-08-08T20:37:46.688Z,98747.22
2022-08-08T20:40:16.454Z,98747.22
2022-08-08T20:42:43.781Z,98753.16
2022-08-08T20:45:10.142Z,98751.00
2022-08-08T20:47:39.241Z,98754.22
2022-08-08T20:50:10.259Z,98749.63
2022-08-08T20:52:38.571Z,98754.19
2022-08-08T20:55:16.073Z,98755.81
2022-08-08T20:57:47.494Z,98761.72
2022-08-08T21:00:17.388Z,98764.13
2022-08-08T21:02:52.475Z,98760.09
2022-08-08T21:05:19.441Z,98769.78
2022-08-08T21:08:07.749Z,98765.75
2022-08-08T21:10:35.890Z,98770.03
2022-08-08T21:13:02.733Z,98765.19
2022-08-08T21:16:05.120Z,98761.34
2022-08-08T21:18:15.850Z,98765.38
2022-08-08T21:20:43.092Z,98764.03
2022-08-08T21:23:18.352Z,98766.44
2022-08-08T21:25:44.707Z,98757.78
2022-08-08T21:28:16.388Z,98761.03
2022-08-08T21:30:45.329Z,98758.88
2022-08-08T21:33:16.435Z,98761.28
2022-08-08T21:36:16.155Z,98762.31
2022-08-08T21:38:29.275Z,98771.75
2022-08-08T21:40:57.501Z,98771.22
2022-08-08T21:43:23.793Z,98762.56
2022-08-08T21:48:06.370Z,98763.09
2022-08-08T21:48:41.679Z,98770.63
2022-08-08T21:51:11.699Z,98771.94
2022-08-08T21:54:34.359Z,98774.91
2022-08-08T21:56:33.905Z,98774.63
2022-08-08T21:59:05.822Z,98779.44
2022-08-08T22:01:40.539Z,98773.50
2022-08-08T22:04:10.462Z,98774.84
2022-08-08T22:06:39.645Z,98787.78
2022-08-08T22:09:08.970Z,98786.16
2022-08-08T22:11:56.543Z,98782.91
2022-08-08T22:14:23.912Z,98792.03
2022-08-08T22:16:53.908Z,98792.56
2022-08-08T22:19:23.755Z,98790.41
2022-08-08T22:21:51.123Z,98796.84
2022-08-08T22:24:17.735Z,98793.59
2022-08-08T22:27:01.983Z,98788.72
2022-08-08T22:29:58.672Z,98800.81
2022-08-08T22:32:16.134Z,98798.34
2022-08-08T22:34:44.814Z,98799.69
2022-08-08T22:37:50.033Z,98799.97
2022-08-08T22:40:03.789Z,98804.78
2022-08-08T22:42:32.112Z,98799.94
2022-08-08T22:45:00.973Z,98804.50
2022-08-08T22:47:37.576Z,98803.94
2022-08-08T22:50:04.956Z,98803.38
2022-08-08T22:52:36.347Z,98802.50
2022-08-08T22:55:04.896Z,98805.16
2022-08-08T22:57:31.906Z,98799.44
2022-08-08T23:00:11.703Z,98797.78
2022-08-08T23:02:40.575Z,98796.94
2022-08-08T23:05:13.675Z,98793.94
2022-08-08T23:07:57.672Z,98807.09
2022-08-08T23:10:25.603Z,98808.09
2022-08-08T23:12:53.280Z,98805.91
2022-08-08T23:16:41.744Z,98807.47
2022-08-08T23:18:08.179Z,98801.81
2022-08-08T23:20:39.480Z,98807.66
2022-08-08T23:23:06.051Z,98809.00
2022-08-08T23:25:37.207Z,98808.69
2022-08-08T23:28:12.181Z,98803.00
2022-08-08T23:30:38.441Z,98807.25
2022-08-08T23:33:06.917Z,98807.75
2022-08-08T23:36:07.289Z,98810.16
2022-08-08T23:38:33.401Z,98811.69
2022-08-08T23:40:59.783Z,98818.38
2022-08-08T23:43:45.333Z,98810.81
2022-08-08T23:49:01.956Z,98810.78
2022-08-08T23:49:15.038Z,98808.59
2022-08-08T23:52:06.446Z,98810.16
2022-08-08T23:54:42.087Z,98809.84
2022-08-08T23:57:15.370Z,98813.28
2022-08-08T23:59:55.625Z,98809.22
